createdAt,value
2019-06-15T07:18:33.181Z,21.06
2019-06-15T07:21:35.844Z,21.23
2019-06-15T07:24:35.634Z,21.55
2019-06-15T07:27:38.188Z,22.02
2019-06-15T07:30:38.283Z,22.45
2019-06-15T07:33:38.143Z,22.66
2019-06-15T07:36:34.752Z,23.03
2019-06-15T07:39:37.448Z,23.32
2019-06-15T07:42:42.986Z,23.41
2019-06-15T07:45:37.134Z,23.39
2019-06-15T07:48:37.982Z,23.45
2019-06-15T07:51:37.943Z,23.80
2019-06-15T07:54:07.948Z,24.00
2019-06-15T07:56:39.175Z,24.30
2019-06-15T07:59:36.138Z,24.43
2019-06-15T08:02:35.635Z,24.43
2019-06-15T08:05:38.188Z,24.33
2019-06-15T08:08:08.297Z,24.30
2019-06-15T08:10:38.377Z,24.43
2019-06-15T08:13:10.014Z,24.31
2019-06-15T08:15:39.939Z,24.27
2019-06-15T08:18:09.940Z,24.45
2019-06-15T08:20:40.455Z,24.60
2019-06-15T08:23:37.341Z,24.83
2019-06-15T08:26:37.937Z,25.08
2019-06-15T08:29:34.519Z,25.26
2019-06-15T08:32:07.338Z,25.48
2019-06-15T08:34:37.481Z,25.66
2019-06-15T08:37:07.449Z,25.59
2019-06-15T08:39:37.021Z,25.11
2019-06-15T08:42:07.282Z,24.96
2019-06-15T08:44:37.529Z,24.88
2019-06-15T08:47:07.540Z,25.08
2019-06-15T08:49:37.140Z,25.13
2019-06-15T08:52:07.409Z,25.36
2019-06-15T08:54:37.304Z,25.51
2019-06-15T08:57:07.574Z,25.64
2019-06-15T08:59:37.186Z,25.75
2019-06-15T09:02:07.477Z,25.63
2019-06-15T09:04:37.124Z,25.49
2019-06-15T09:07:07.173Z,25.46
2019-06-15T09:09:36.861Z,25.67
2019-06-15T09:12:08.184Z,25.67
2019-06-15T09:14:38.148Z,25.85
2019-06-15T09:17:08.316Z,25.88
2019-06-15T09:19:38.143Z,25.99
2019-06-15T09:22:10.732Z,25.92
2019-06-15T09:24:40.663Z,25.84
2019-06-15T09:27:10.848Z,26.04
2019-06-15T09:29:41.019Z,26.14
2019-06-15T09:32:11.305Z,25.86
2019-06-15T09:34:41.009Z,26.04
2019-06-15T09:37:38.401Z,26.45
2019-06-15T09:40:08.368Z,26.44
2019-06-15T09:42:39.097Z,26.64
2019-06-15T09:45:09.869Z,26.98
2019-06-15T09:47:40.341Z,27.05
2019-06-15T09:50:10.347Z,27.11
2019-06-15T10:00:36.386Z,26.52
2019-06-15T10:03:37.282Z,26.85
2019-06-15T10:06:36.747Z,27.30
2019-06-15T10:19:34.821Z,27.28
2019-06-15T10:22:37.473Z,27.04
2019-06-15T10:28:32.374Z,26.49
2019-06-15T10:31:02.840Z,26.37
2019-06-15T10:33:32.571Z,26.01
2019-06-15T10:36:02.705Z,25.82
2019-06-15T10:38:33.014Z,26.03
2019-06-15T10:41:03.420Z,26.16
2019-06-15T10:43:33.098Z,26.30
2019-06-15T10:46:03.533Z,26.50
2019-06-15T10:48:33.522Z,26.52
2019-06-15T10:51:03.513Z,26.51
2019-06-15T10:53:33.678Z,26.56
2019-06-15T10:56:04.121Z,26.98
2019-06-15T10:58:33.775Z,27.02
2019-06-15T11:01:04.069Z,26.99
2019-06-15T11:03:34.439Z,26.91
2019-06-15T11:06:04.470Z,26.93
2019-06-15T11:08:34.316Z,27.13
2019-06-15T11:11:07.137Z,27.26
2019-06-15T11:13:37.049Z,27.45
2019-06-15T11:16:07.227Z,27.56
2019-06-15T11:18:37.352Z,27.63
2019-06-15T11:21:07.789Z,27.90
2019-06-15T11:23:37.714Z,28.25
2019-06-15T11:26:07.797Z,28.44
2019-06-15T11:28:37.476Z,28.64
2019-06-15T11:31:07.814Z,28.77
2019-06-15T11:33:37.824Z,28.95
2019-06-15T11:36:07.754Z,28.85
2019-06-15T11:38:37.531Z,29.09
2019-06-15T11:41:08.059Z,29.28
2019-06-15T11:43:39.313Z,29.15
2019-06-15T11:46:09.194Z,28.90
2019-06-15T11:48:41.739Z,28.77
2019-06-15T11:51:11.601Z,28.80
2019-06-15T11:53:41.589Z,29.03
2019-06-15T11:56:11.638Z,29.26
2019-06-15T11:58:41.840Z,29.41
2019-06-15T12:01:11.649Z,29.48
2019-06-15T12:03:41.933Z,29.49
2019-06-15T12:06:11.431Z,29.19
2019-06-15T12:08:42.161Z,29.12
2019-06-15T12:11:11.980Z,29.10
2019-06-15T12:13:42.038Z,29.11
2019-06-15T12:16:12.013Z,29.09
2019-06-15T12:18:42.288Z,29.24
2019-06-15T12:21:12.326Z,29.27
2019-06-15T12:23:42.234Z,29.19
2019-06-15T12:26:12.375Z,29.62
2019-06-15T12:28:42.693Z,29.56
2019-06-15T12:31:13.197Z,29.92
2019-06-15T12:33:43.426Z,29.99
2019-06-15T12:36:19.282Z,30.18
2019-06-15T12:38:46.283Z,30.27
2019-06-15T12:41:16.066Z,30.19
2019-06-15T12:43:46.290Z,29.55
2019-06-15T12:46:16.326Z,29.49
2019-06-15T12:48:46.722Z,29.46
2019-06-15T12:51:16.926Z,29.41
2019-06-15T12:53:50.141Z,29.85
2019-06-15T12:56:20.220Z,30.05
2019-06-15T12:58:50.436Z,30.56
2019-06-15T13:01:20.252Z,30.50
2019-06-15T13:03:50.407Z,30.70
2019-06-15T13:06:19.839Z,30.84
2019-06-15T13:08:49.620Z,30.80
2019-06-15T13:11:19.891Z,30.33
2019-06-15T13:13:49.529Z,30.16
2019-06-15T13:16:19.489Z,30.31
2019-06-15T13:18:49.542Z,30.63
2019-06-15T13:21:19.809Z,30.75
2019-06-15T13:23:49.741Z,30.92
2019-06-15T13:26:19.641Z,31.06
2019-06-15T13:28:51.140Z,31.11
2019-06-15T13:31:21.206Z,31.07
2019-06-15T13:33:49.645Z,31.19
2019-06-15T13:36:17.952Z,31.02
2019-06-15T13:38:46.250Z,31.11
2019-06-15T13:41:14.653Z,31.28
2019-06-15T13:43:43.025Z,31.13
2019-06-15T13:46:11.517Z,30.83
2019-06-15T13:48:39.970Z,30.44
2019-06-15T13:51:08.515Z,30.67
2019-06-15T13:53:36.848Z,30.78
2019-06-15T13:56:08.144Z,30.78
2019-06-15T13:58:36.640Z,30.63
2019-06-15T14:01:06.793Z,30.42
2019-06-15T14:03:38.103Z,30.44
2019-06-15T14:06:08.677Z,30.08
2019-06-15T14:08:38.994Z,30.02
2019-06-15T14:11:08.845Z,30.00
2019-06-15T14:13:39.124Z,29.79
2019-06-15T14:16:09.391Z,30.05
2019-06-15T14:18:40.196Z,30.33
2019-06-15T14:21:10.405Z,30.33
2019-06-15T14:23:40.304Z,30.28
2019-06-15T14:26:10.237Z,30.13
2019-06-15T14:28:40.211Z,30.12
2019-06-15T14:31:10.458Z,30.23
2019-06-15T14:33:38.857Z,30.33
2019-06-15T14:36:07.314Z,30.33
2019-06-15T14:38:35.662Z,30.36
2019-06-15T14:41:04.066Z,30.35
2019-06-15T14:43:32.406Z,30.22
2019-06-15T14:46:00.859Z,30.44
2019-06-15T14:48:30.547Z,30.37
2019-06-15T14:51:00.250Z,30.07
2019-06-15T14:53:28.593Z,29.85
2019-06-15T14:55:59.897Z,29.53
2019-06-15T14:58:30.440Z,29.58
2019-06-15T15:01:00.349Z,29.56
2019-06-15T15:03:30.787Z,29.48
2019-06-15T15:06:00.582Z,28.99
2019-06-15T15:08:30.952Z,29.10
2019-06-15T15:11:00.955Z,29.14
2019-06-15T15:13:31.592Z,29.19
2019-06-15T15:16:01.794Z,29.28
2019-06-15T15:18:31.806Z,28.94
2019-06-15T15:21:00.796Z,28.94
2019-06-15T15:23:29.802Z,28.87
2019-06-15T15:25:59.603Z,28.92
2019-06-15T15:28:30.997Z,28.82
2019-06-15T15:30:58.034Z,28.64
2019-06-15T15:33:26.456Z,28.73
2019-06-15T15:35:54.730Z,28.27
2019-06-15T15:38:23.156Z,28.39
2019-06-15T15:40:51.470Z,28.54
2019-06-15T15:43:19.788Z,28.36
2019-06-15T15:45:48.088Z,28.25
2019-06-15T15:48:18.520Z,28.06
2019-06-15T15:50:46.968Z,28.04
2019-06-15T15:53:15.525Z,28.04
2019-06-15T15:55:43.855Z,28.06
2019-06-15T15:58:12.181Z,28.00
2019-06-15T16:00:40.650Z,27.83
2019-06-15T16:03:09.116Z,27.81
2019-06-15T16:05:37.518Z,27.78
2019-06-15T16:08:06.664Z,27.51
2019-06-15T16:10:37.360Z,27.32
2019-06-15T16:13:06.436Z,27.31
2019-06-15T16:15:37.149Z,27.39
2019-06-15T16:18:06.824Z,27.37
2019-06-15T16:20:36.959Z,27.33
2019-06-15T16:23:07.459Z,27.37
2019-06-15T16:25:37.160Z,27.42
2019-06-15T16:28:07.091Z,27.06
2019-06-15T16:30:59.654Z,26.91
2019-06-15T16:33:07.707Z,26.85
2019-06-15T16:35:36.915Z,26.65
2019-06-15T16:38:06.834Z,26.57
2019-06-15T16:40:39.403Z,26.43
2019-06-15T16:43:08.048Z,26.43
2019-06-15T16:45:36.767Z,26.32
2019-06-15T16:48:06.368Z,26.14
2019-06-15T16:50:36.669Z,26.12
2019-06-15T16:53:05.493Z,26.15
2019-06-15T16:55:36.558Z,26.19
2019-06-15T16:58:04.123Z,26.20
2019-06-15T17:00:36.358Z,26.19
2019-06-15T17:03:20.278Z,26.25
2019-06-15T17:05:36.214Z,26.22
2019-06-15T17:08:06.907Z,26.27
2019-06-15T17:10:38.452Z,26.00
2019-06-15T17:13:07.741Z,26.06
2019-06-15T17:15:37.115Z,25.95
2019-06-15T17:18:05.783Z,25.95
2019-06-15T17:20:39.930Z,25.88
2019-06-15T17:23:08.331Z,25.82
2019-06-15T17:25:37.297Z,25.81
2019-06-15T17:28:05.653Z,25.85
2019-06-15T17:30:36.863Z,25.83
2019-06-15T17:33:05.937Z,25.71
2019-06-15T17:35:36.265Z,25.72
2019-06-15T17:38:04.602Z,25.69
2019-06-15T17:40:33.181Z,25.70
2019-06-15T17:43:01.681Z,25.69
2019-06-15T17:45:30.051Z,25.63
2019-06-15T17:47:58.525Z,25.71
2019-06-15T17:50:40.969Z,25.73
2019-06-15T17:53:09.626Z,25.71
2019-06-15T17:55:38.511Z,25.55
2019-06-15T17:58:07.319Z,25.64
2019-06-15T18:00:46.708Z,25.59
2019-06-15T18:03:16.773Z,25.56
2019-06-15T18:05:44.360Z,25.47
2019-06-15T18:08:12.933Z,25.47
2019-06-15T18:10:41.245Z,25.50
2019-06-15T18:13:09.815Z,25.37
2019-06-15T18:15:38.211Z,25.38
2019-06-15T18:18:07.218Z,25.39
2019-06-15T18:20:36.400Z,25.34
2019-06-15T18:23:06.086Z,25.38
2019-06-15T18:25:37.051Z,25.31
2019-06-15T18:28:06.487Z,25.33
2019-06-15T18:30:37.141Z,25.32
2019-06-15T18:33:07.073Z,25.29
2019-06-15T18:35:36.163Z,25.27
2019-06-15T18:38:07.065Z,25.24
2019-06-15T18:40:37.004Z,25.21
2019-06-15T18:43:07.103Z,25.14
2019-06-15T18:45:36.158Z,25.17
2019-06-15T18:48:06.238Z,25.21
2019-06-15T18:50:39.926Z,25.16
2019-06-15T18:53:08.517Z,25.11
2019-06-15T18:55:37.092Z,25.13
2019-06-15T18:58:05.587Z,24.91
2019-06-15T19:00:34.094Z,24.41
2019-06-15T19:03:06.917Z,23.95
2019-06-15T19:05:37.247Z,23.57
2019-06-15T19:08:06.552Z,23.20
2019-06-15T19:10:37.198Z,22.97
2019-06-15T19:13:07.399Z,22.83
2019-06-15T19:15:37.281Z,22.74
2019-06-15T19:18:07.495Z,22.61
2019-06-15T19:20:37.267Z,22.55
2019-06-15T19:23:06.806Z,22.47
2019-06-15T19:25:36.361Z,22.41
2019-06-15T19:28:05.261Z,22.36
2019-06-15T19:30:33.665Z,22.31
2019-06-15T19:33:01.959Z,22.28
2019-06-15T19:35:30.313Z,22.23
2019-06-15T19:37:58.716Z,22.25
2019-06-15T19:40:27.195Z,22.25
2019-06-15T19:42:57.022Z,22.24
2019-06-15T19:45:26.700Z,22.23
2019-06-15T19:47:55.139Z,22.19
2019-06-15T19:50:23.496Z,22.21
2019-06-15T19:52:51.859Z,22.19
2019-06-15T19:55:20.369Z,22.11
2019-06-15T19:57:48.719Z,22.15
2019-06-15T20:00:17.428Z,22.19
2019-06-15T20:02:47.979Z,22.18
2019-06-15T20:05:16.006Z,22.27
2019-06-15T20:07:46.607Z,22.24
2019-06-15T20:10:16.486Z,22.33
2019-06-15T20:12:46.576Z,22.34
2019-06-15T20:15:16.819Z,22.32
2019-06-15T20:17:46.161Z,22.26
2019-06-15T20:20:14.889Z,22.29
2019-06-15T20:22:43.284Z,22.34
2019-06-15T20:25:11.922Z,22.31
2019-06-15T20:27:40.263Z,22.27
2019-06-15T20:30:09.147Z,22.27
2019-06-15T20:32:37.617Z,22.33
2019-06-15T20:35:16.598Z,22.39
2019-06-15T20:37:39.241Z,22.52
2019-06-15T20:40:09.395Z,22.58
2019-06-15T20:42:38.082Z,22.66
2019-06-15T20:45:11.141Z,22.68
2019-06-15T20:47:39.540Z,22.67
2019-06-15T20:50:21.970Z,22.69
2019-06-15T20:52:39.099Z,22.66
2019-06-15T20:55:07.644Z,22.63
2019-06-15T20:57:36.126Z,22.58
2019-06-15T21:00:06.664Z,22.46
2019-06-15T21:02:36.188Z,22.41
2019-06-15T21:05:07.711Z,22.37
2019-06-15T21:07:36.312Z,22.28
2019-06-15T21:10:07.218Z,22.22
2019-06-15T21:12:37.505Z,22.15
2019-06-15T21:15:07.395Z,22.05
2019-06-15T21:17:37.145Z,21.99
2019-06-15T21:20:09.333Z,21.93
2019-06-15T21:22:37.760Z,21.93
2019-06-15T21:25:07.502Z,22.01
2019-06-15T21:27:36.842Z,21.97
2019-06-15T21:30:10.243Z,21.99
2019-06-15T21:32:38.656Z,21.98
2019-06-15T21:35:10.549Z,21.91
2019-06-15T21:37:39.133Z,21.89
2019-06-15T21:40:08.059Z,21.86
2019-06-15T21:42:36.453Z,21.76
2019-06-15T21:45:07.587Z,21.69
2019-06-15T21:47:37.175Z,21.60
2019-06-15T21:50:09.623Z,21.31
2019-06-15T21:52:37.937Z,20.92
2019-06-15T21:55:07.197Z,20.31
2019-06-15T21:57:36.564Z,19.62
2019-06-15T22:00:17.197Z,19.00
2019-06-15T22:02:46.924Z,18.59
2019-06-15T22:05:16.620Z,18.26
2019-06-15T22:07:44.571Z,18.13
2019-06-15T22:10:13.141Z,18.00
2019-06-15T22:12:41.571Z,17.95
2019-06-15T22:15:10.884Z,17.87
2019-06-15T22:17:39.241Z,17.86
2019-06-15T22:20:07.949Z,17.70
2019-06-15T22:22:36.610Z,17.83
2019-06-15T22:25:06.934Z,17.79
2019-06-15T22:27:36.198Z,17.82
2019-06-15T22:30:08.314Z,17.93
2019-06-15T22:32:36.774Z,17.94
2019-06-15T22:35:07.501Z,17.98
2019-06-15T22:37:36.139Z,17.94
2019-06-15T22:40:08.407Z,17.84
2019-06-15T22:42:36.846Z,17.93
2019-06-15T22:45:06.884Z,18.08
2019-06-15T22:47:36.139Z,18.23
2019-06-15T22:50:07.050Z,18.29
2019-06-15T22:52:36.391Z,18.28
2019-06-15T22:55:08.116Z,18.32
2019-06-15T22:57:37.103Z,18.45
2019-06-15T23:00:07.606Z,18.57
2019-06-15T23:02:36.467Z,18.63
2019-06-15T23:05:06.523Z,18.58
2019-06-15T23:07:36.292Z,18.45
2019-06-15T23:10:07.044Z,18.34
2019-06-15T23:12:37.242Z,18.28
2019-06-15T23:15:07.218Z,18.33
2019-06-15T23:17:37.156Z,18.31
2019-06-15T23:20:06.767Z,18.32
2019-06-15T23:22:35.569Z,18.33
2019-06-15T23:25:06.206Z,18.32
2019-06-15T23:27:34.793Z,18.40
2019-06-15T23:30:06.731Z,18.41
2019-06-15T23:32:34.958Z,18.32
2019-06-15T23:35:06.490Z,18.30
2019-06-15T23:37:37.332Z,18.26
2019-06-15T23:40:16.919Z,18.29
2019-06-15T23:42:46.000Z,18.25
2019-06-15T23:45:16.104Z,18.35
2019-06-15T23:47:46.701Z,18.37
2019-06-15T23:50:17.012Z,18.44
2019-06-15T23:52:46.848Z,18.54
2019-06-15T23:55:16.462Z,18.61
2019-06-15T23:57:46.490Z,18.69
